sensor_id;sensor_type;location;lat;lon;timestamp;temperature;humidity
38910;DHT22;24676;51.360;12.354;2023-04-24T00:01:07;13.60;99.90
38910;DHT22;24676;51.360;12.354;2023-04-24T00:03:52;13.60;99.90
38910;DHT22;24676;51.360;12.354;2023-04-24T00:06:37;13.60;99.90
38910;DHT22;24676;51.360;12.354;2023-04-24T00:09:23;13.60;99.90
38910;DHT22;24676;51.360;12.354;2023-04-24T00:12:08;13.60;99.90
38910;DHT22;24676;51.360;12.354;2023-04-24T00:14:53;13.50;99.90
38910;DHT22;24676;51.360;12.354;2023-04-24T00:17:37;13.50;99.90
38910;DHT22;24676;51.360;12.354;2023-04-24T00:20:21;13.50;99.90
38910;DHT22;24676;51.360;12.354;2023-04-24T00:23:06;13.40;99.90
38910;DHT22;24676;51.360;12.354;2023-04-24T00:25:51;13.40;99.90
38910;DHT22;24676;51.360;12.354;2023-04-24T00:28:35;13.40;99.90
38910;DHT22;24676;51.360;12.354;2023-04-24T00:31:20;13.30;99.90
38910;DHT22;24676;51.360;12.354;2023-04-24T00:34:04;13.20;99.90
38910;DHT22;24676;51.360;12.354;2023-04-24T00:36:48;13.20;99.90
38910;DHT22;24676;51.360;12.354;2023-04-24T00:39:36;13.10;99.90
38910;DHT22;24676;51.360;12.354;2023-04-24T00:42:20;13.10;99.90
38910;DHT22;24676;51.360;12.354;2023-04-24T00:45:05;13.00;99.90
38910;DHT22;24676;51.360;12.354;2023-04-24T00:47:52;13.00;99.90
38910;DHT22;24676;51.360;12.354;2023-04-24T00:50:36;12.90;99.90
38910;DHT22;24676;51.360;12.354;2023-04-24T00:53:21;12.90;99.90
38910;DHT22;24676;51.360;12.354;2023-04-24T00:56:06;12.80;99.90
38910;DHT22;24676;51.360;12.354;2023-04-24T00:58:50;12.70;99.90
38910;DHT22;24676;51.360;12.354;2023-04-24T01:01:35;12.70;99.90
38910;DHT22;24676;51.360;12.354;2023-04-24T01:04:20;12.60;99.90
38910;DHT22;24676;51.360;12.354;2023-04-24T01:07:04;12.60;99.90
38910;DHT22;24676;51.360;12.354;2023-04-24T01:09:54;12.60;99.90
38910;DHT22;24676;51.360;12.354;2023-04-24T01:12:38;12.50;99.90
38910;DHT22;24676;51.360;12.354;2023-04-24T01:15:22;12.50;99.90
38910;DHT22;24676;51.360;12.354;2023-04-24T01:18:07;12.50;99.90
38910;DHT22;24676;51.360;12.354;2023-04-24T01:20:53;12.50;99.90
38910;DHT22;24676;51.360;12.354;2023-04-24T01:23:39;12.50;99.90
38910;DHT22;24676;51.360;12.354;2023-04-24T01:26:23;12.50;99.90
38910;DHT22;24676;51.360;12.354;2023-04-24T01:29:09;12.40;99.90
38910;DHT22;24676;51.360;12.354;2023-04-24T01:31:55;12.40;99.90
38910;DHT22;24676;51.360;12.354;2023-04-24T01:34:40;12.40;99.90
38910;DHT22;24676;51.360;12.354;2023-04-24T01:37:24;12.50;99.90
38910;DHT22;24676;51.360;12.354;2023-04-24T01:40:10;12.40;99.90
38910;DHT22;24676;51.360;12.354;2023-04-24T01:42:55;12.40;99.90
38910;DHT22;24676;51.360;12.354;2023-04-24T01:45:39;12.40;99.90
38910;DHT22;24676;51.360;12.354;2023-04-24T01:48:24;12.30;99.90
38910;DHT22;24676;51.360;12.354;2023-04-24T01:51:08;12.30;99.90
38910;DHT22;24676;51.360;12.354;2023-04-24T01:53:53;12.20;99.90
38910;DHT22;24676;51.360;12.354;2023-04-24T01:56:41;12.30;99.90
38910;DHT22;24676;51.360;12.354;2023-04-24T01:59:28;12.20;99.90
38910;DHT22;24676;51.360;12.354;2023-04-24T02:02:12;12.20;99.90
38910;DHT22;24676;51.360;12.354;2023-04-24T02:04:57;12.10;99.90
38910;DHT22;24676;51.360;12.354;2023-04-24T02:07:41;12.10;99.90
38910;DHT22;24676;51.360;12.354;2023-04-24T02:10:25;12.10;99.90
38910;DHT22;24676;51.360;12.354;2023-04-24T02:13:10;12.10;99.90
38910;DHT22;24676;51.360;12.354;2023-04-24T02:15:54;12.10;99.90
38910;DHT22;24676;51.360;12.354;2023-04-24T02:18:39;12.00;99.90
38910;DHT22;24676;51.360;12.354;2023-04-24T02:21:23;12.00;99.90
38910;DHT22;24676;51.360;12.354;2023-04-24T02:24:08;12.00;99.90
38910;DHT22;24676;51.360;12.354;2023-04-24T02:26:55;12.00;99.90
38910;DHT22;24676;51.360;12.354;2023-04-24T02:29:42;12.00;99.90
38910;DHT22;24676;51.360;12.354;2023-04-24T02:32:27;12.00;99.90
38910;DHT22;24676;51.360;12.354;2023-04-24T02:35:11;11.90;99.90
38910;DHT22;24676;51.360;12.354;2023-04-24T02:37:55;11.90;99.90
38910;DHT22;24676;51.360;12.354;2023-04-24T02:40:39;11.80;99.90
38910;DHT22;24676;51.360;12.354;2023-04-24T02:43:24;11.80;99.90
38910;DHT22;24676;51.360;12.354;2023-04-24T02:46:08;11.80;99.90
38910;DHT22;24676;51.360;12.354;2023-04-24T02:48:52;11.80;99.90
38910;DHT22;24676;51.360;12.354;2023-04-24T02:51:36;11.80;99.90
38910;DHT22;24676;51.360;12.354;2023-04-24T02:54:24;11.80;99.90
38910;DHT22;24676;51.360;12.354;2023-04-24T02:57:08;11.70;99.90
38910;DHT22;24676;51.360;12.354;2023-04-24T02:59:52;11.60;99.90
38910;DHT22;24676;51.360;12.354;2023-04-24T03:02:37;11.60;99.90
38910;DHT22;24676;51.360;12.354;2023-04-24T03:05:21;11.60;99.90
38910;DHT22;24676;51.360;12.354;2023-04-24T03:08:05;11.50;99.90
38910;DHT22;24676;51.360;12.354;2023-04-24T03:10:50;11.50;99.90
38910;DHT22;24676;51.360;12.354;2023-04-24T03:13:34;11.50;99.90
38910;DHT22;24676;51.360;12.354;2023-04-24T03:16:18;11.40;99.90
38910;DHT22;24676;51.360;12.354;2023-04-24T03:19:02;11.40;99.90
38910;DHT22;24676;51.360;12.354;2023-04-24T03:21:47;11.40;99.90
38910;DHT22;24676;51.360;12.354;2023-04-24T03:24:31;11.40;99.90
38910;DHT22;24676;51.360;12.354;2023-04-24T03:27:15;11.40;99.90
38910;DHT22;24676;51.360;12.354;2023-04-24T03:29:59;11.40;99.90
38910;DHT22;24676;51.360;12.354;2023-04-24T03:32:44;11.40;99.90
38910;DHT22;24676;51.360;12.354;2023-04-24T03:35:28;11.40;99.90
38910;DHT22;24676;51.360;12.354;2023-04-24T03:38:12;11.40;99.90
38910;DHT22;24676;51.360;12.354;2023-04-24T03:40:57;11.30;99.90
38910;DHT22;24676;51.360;12.354;2023-04-24T03:43:41;11.40;99.90
38910;DHT22;24676;51.360;12.354;2023-04-24T03:46:25;11.30;99.90
38910;DHT22;24676;51.360;12.354;2023-04-24T03:49:10;11.30;99.90
38910;DHT22;24676;51.360;12.354;2023-04-24T03:51:55;11.30;99.90
38910;DHT22;24676;51.360;12.354;2023-04-24T03:54:39;11.30;99.90
38910;DHT22;24676;51.360;12.354;2023-04-24T03:57:23;11.30;99.90
38910;DHT22;24676;51.360;12.354;2023-04-24T04:00:09;11.30;99.90
38910;DHT22;24676;51.360;12.354;2023-04-24T04:02:54;11.30;99.90
38910;DHT22;24676;51.360;12.354;2023-04-24T04:05:42;11.20;99.90
38910;DHT22;24676;51.360;12.354;2023-04-24T04:08:26;11.20;99.90
38910;DHT22;24676;51.360;12.354;2023-04-24T04:11:10;11.20;99.90
38910;DHT22;24676;51.360;12.354;2023-04-24T04:13:54;11.20;99.90
38910;DHT22;24676;51.360;12.354;2023-04-24T04:16:39;11.20;99.90
38910;DHT22;24676;51.360;12.354;2023-04-24T04:19:24;11.20;99.90
38910;DHT22;24676;51.360;12.354;2023-04-24T04:22:08;11.20;99.90
38910;DHT22;24676;51.360;12.354;2023-04-24T04:24:52;11.20;99.90
38910;DHT22;24676;51.360;12.354;2023-04-24T04:27:37;11.20;99.90
38910;DHT22;24676;51.360;12.354;2023-04-24T04:30:21;11.30;99.90
38910;DHT22;24676;51.360;12.354;2023-04-24T04:33:05;11.40;99.90
38910;DHT22;24676;51.360;12.354;2023-04-24T04:35:50;11.40;99.90
38910;DHT22;24676;51.360;12.354;2023-04-24T04:38:37;11.50;99.90
38910;DHT22;24676;51.360;12.354;2023-04-24T04:41:22;11.60;99.90
38910;DHT22;24676;51.360;12.354;2023-04-24T04:44:06;11.70;99.90
38910;DHT22;24676;51.360;12.354;2023-04-24T04:46:52;11.80;99.90
38910;DHT22;24676;51.360;12.354;2023-04-24T04:49:38;11.80;99.90
38910;DHT22;24676;51.360;12.354;2023-04-24T04:52:22;11.90;99.90
38910;DHT22;24676;51.360;12.354;2023-04-24T04:55:09;12.10;99.90
38910;DHT22;24676;51.360;12.354;2023-04-24T04:57:53;12.20;99.90
38910;DHT22;24676;51.360;12.354;2023-04-24T05:00:37;12.30;99.90
38910;DHT22;24676;51.360;12.354;2023-04-24T05:03:21;12.40;99.90
38910;DHT22;24676;51.360;12.354;2023-04-24T05:06:05;12.60;99.90
38910;DHT22;24676;51.360;12.354;2023-04-24T05:08:49;12.70;99.90
38910;DHT22;24676;51.360;12.354;2023-04-24T05:11:35;12.80;99.90
38910;DHT22;24676;51.360;12.354;2023-04-24T05:14:19;12.90;99.90
38910;DHT22;24676;51.360;12.354;2023-04-24T05:17:03;13.00;99.90
38910;DHT22;24676;51.360;12.354;2023-04-24T05:19:48;13.20;99.90
38910;DHT22;24676;51.360;12.354;2023-04-24T05:22:32;13.40;99.90
38910;DHT22;24676;51.360;12.354;2023-04-24T05:25:17;14.40;99.90
38910;DHT22;24676;51.360;12.354;2023-04-24T05:28:01;15.40;99.90
38910;DHT22;24676;51.360;12.354;2023-04-24T05:30:46;15.90;99.90
38910;DHT22;24676;51.360;12.354;2023-04-24T05:33:30;15.80;99.90
38910;DHT22;24676;51.360;12.354;2023-04-24T05:36:15;15.60;99.90
38910;DHT22;24676;51.360;12.354;2023-04-24T05:38:59;15.30;99.90
38910;DHT22;24676;51.360;12.354;2023-04-24T05:41:43;15.20;99.90
38910;DHT22;24676;51.360;12.354;2023-04-24T05:44:28;15.40;99.90
38910;DHT22;24676;51.360;12.354;2023-04-24T05:47:12;15.50;99.90
38910;DHT22;24676;51.360;12.354;2023-04-24T05:49:57;15.50;99.90
38910;DHT22;24676;51.360;12.354;2023-04-24T05:52:41;15.50;99.90
38910;DHT22;24676;51.360;12.354;2023-04-24T05:55:25;15.80;99.90
38910;DHT22;24676;51.360;12.354;2023-04-24T05:58:10;16.10;99.90
38910;DHT22;24676;51.360;12.354;2023-04-24T06:00:54;16.00;99.90
38910;DHT22;24676;51.360;12.354;2023-04-24T06:03:40;16.20;99.90
38910;DHT22;24676;51.360;12.354;2023-04-24T06:06:24;16.80;99.90
38910;DHT22;24676;51.360;12.354;2023-04-24T06:09:09;17.40;99.90
38910;DHT22;24676;51.360;12.354;2023-04-24T06:11:54;17.80;96.10
38910;DHT22;24676;51.360;12.354;2023-04-24T06:14:38;18.10;92.80
38910;DHT22;24676;51.360;12.354;2023-04-24T06:17:22;18.20;89.00
38910;DHT22;24676;51.360;12.354;2023-04-24T06:20:06;18.30;88.60
38910;DHT22;24676;51.360;12.354;2023-04-24T06:22:52;18.50;85.40
38910;DHT22;24676;51.360;12.354;2023-04-24T06:25:37;18.30;87.40
38910;DHT22;24676;51.360;12.354;2023-04-24T06:28:21;17.30;92.60
38910;DHT22;24676;51.360;12.354;2023-04-24T06:31:06;16.50;98.90
38910;DHT22;24676;51.360;12.354;2023-04-24T06:33:50;16.00;99.90
38910;DHT22;24676;51.360;12.354;2023-04-24T06:36:34;15.60;99.90
38910;DHT22;24676;51.360;12.354;2023-04-24T06:39:19;15.40;99.90
38910;DHT22;24676;51.360;12.354;2023-04-24T06:42:03;15.00;99.90
38910;DHT22;24676;51.360;12.354;2023-04-24T06:44:47;14.70;99.90
38910;DHT22;24676;51.360;12.354;2023-04-24T06:47:32;14.50;99.90
38910;DHT22;24676;51.360;12.354;2023-04-24T06:50:16;14.40;99.90
38910;DHT22;24676;51.360;12.354;2023-04-24T06:53:01;14.20;99.90
38910;DHT22;24676;51.360;12.354;2023-04-24T06:55:45;14.10;99.90
38910;DHT22;24676;51.360;12.354;2023-04-24T06:58:30;14.20;99.90
38910;DHT22;24676;51.360;12.354;2023-04-24T07:01:14;14.30;99.90
38910;DHT22;24676;51.360;12.354;2023-04-24T07:03:59;14.40;99.90
38910;DHT22;24676;51.360;12.354;2023-04-24T07:06:47;14.50;99.90
38910;DHT22;24676;51.360;12.354;2023-04-24T07:09:32;14.50;99.90
38910;DHT22;24676;51.360;12.354;2023-04-24T07:12:16;14.50;99.90
38910;DHT22;24676;51.360;12.354;2023-04-24T07:15:01;14.40;99.90
38910;DHT22;24676;51.360;12.354;2023-04-24T07:17:45;14.40;99.90
38910;DHT22;24676;51.360;12.354;2023-04-24T07:20:30;14.40;99.90
38910;DHT22;24676;51.360;12.354;2023-04-24T07:23:15;14.50;99.90
38910;DHT22;24676;51.360;12.354;2023-04-24T07:26:01;14.70;99.90
38910;DHT22;24676;51.360;12.354;2023-04-24T07:28:46;14.90;99.90
38910;DHT22;24676;51.360;12.354;2023-04-24T07:31:30;15.60;99.90
38910;DHT22;24676;51.360;12.354;2023-04-24T07:34:15;16.40;99.90
38910;DHT22;24676;51.360;12.354;2023-04-24T07:36:59;17.20;99.90
38910;DHT22;24676;51.360;12.354;2023-04-24T07:39:43;17.50;99.70
38910;DHT22;24676;51.360;12.354;2023-04-24T07:42:28;18.00;94.70
38910;DHT22;24676;51.360;12.354;2023-04-24T07:45:15;18.30;91.40
38910;DHT22;24676;51.360;12.354;2023-04-24T07:47:59;18.10;90.40
38910;DHT22;24676;51.360;12.354;2023-04-24T07:50:46;17.80;90.70
38910;DHT22;24676;51.360;12.354;2023-04-24T07:53:31;17.30;95.90
38910;DHT22;24676;51.360;12.354;2023-04-24T07:56:15;17.10;96.70
38910;DHT22;24676;51.360;12.354;2023-04-24T07:59:01;17.60;95.10
38910;DHT22;24676;51.360;12.354;2023-04-24T08:01:45;18.60;91.70
38910;DHT22;24676;51.360;12.354;2023-04-24T08:04:29;20.40;70.50
38910;DHT22;24676;51.360;12.354;2023-04-24T08:07:14;22.40;56.20
38910;DHT22;24676;51.360;12.354;2023-04-24T08:09:58;23.30;54.20
38910;DHT22;24676;51.360;12.354;2023-04-24T08:12:43;24.20;52.00
38910;DHT22;24676;51.360;12.354;2023-04-24T08:15:27;24.00;47.70
38910;DHT22;24676;51.360;12.354;2023-04-24T08:18:12;23.10;49.00
38910;DHT22;24676;51.360;12.354;2023-04-24T08:20:57;22.10;50.30
38910;DHT22;24676;51.360;12.354;2023-04-24T08:23:45;21.50;53.20
38910;DHT22;24676;51.360;12.354;2023-04-24T08:26:30;20.80;53.60
38910;DHT22;24676;51.360;12.354;2023-04-24T08:29:14;20.90;54.70
38910;DHT22;24676;51.360;12.354;2023-04-24T08:31:58;21.10;53.20
38910;DHT22;24676;51.360;12.354;2023-04-24T08:34:43;20.70;55.10
38910;DHT22;24676;51.360;12.354;2023-04-24T08:37:27;20.40;53.30
38910;DHT22;24676;51.360;12.354;2023-04-24T08:40:16;20.20;54.50
38910;DHT22;24676;51.360;12.354;2023-04-24T08:43:00;19.50;54.80
38910;DHT22;24676;51.360;12.354;2023-04-24T08:45:44;19.00;57.40
38910;DHT22;24676;51.360;12.354;2023-04-24T08:48:29;18.20;57.20
38910;DHT22;24676;51.360;12.354;2023-04-24T08:51:14;17.90;58.30
38910;DHT22;24676;51.360;12.354;2023-04-24T08:53:59;17.70;60.40
38910;DHT22;24676;51.360;12.354;2023-04-24T08:56:44;17.40;62.90
38910;DHT22;24676;51.360;12.354;2023-04-24T08:59:31;17.60;64.80
38910;DHT22;24676;51.360;12.354;2023-04-24T09:02:16;18.50;61.90
38910;DHT22;24676;51.360;12.354;2023-04-24T09:05:00;19.50;58.70
38910;DHT22;24676;51.360;12.354;2023-04-24T09:07:54;19.70;58.00
38910;DHT22;24676;51.360;12.354;2023-04-24T09:10:39;19.40;57.40
38910;DHT22;24676;51.360;12.354;2023-04-24T09:13:23;19.00;59.00
38910;DHT22;24676;51.360;12.354;2023-04-24T09:16:08;18.70;59.70
38910;DHT22;24676;51.360;12.354;2023-04-24T09:18:53;18.10;61.30
38910;DHT22;24676;51.360;12.354;2023-04-24T09:21:37;17.60;63.60
38910;DHT22;24676;51.360;12.354;2023-04-24T09:24:22;17.30;65.90
38910;DHT22;24676;51.360;12.354;2023-04-24T09:27:07;16.80;68.90
38910;DHT22;24676;51.360;12.354;2023-04-24T09:29:55;16.30;76.00
38910;DHT22;24676;51.360;12.354;2023-04-24T09:32:40;16.00;84.50
38910;DHT22;24676;51.360;12.354;2023-04-24T09:35:24;15.80;91.60
38910;DHT22;24676;51.360;12.354;2023-04-24T09:38:09;15.70;93.80
38910;DHT22;24676;51.360;12.354;2023-04-24T09:40:53;15.70;94.00
38910;DHT22;24676;51.360;12.354;2023-04-24T09:43:38;15.60;92.90
38910;DHT22;24676;51.360;12.354;2023-04-24T09:46:30;15.70;91.80
38910;DHT22;24676;51.360;12.354;2023-04-24T09:49:15;15.80;91.70
38910;DHT22;24676;51.360;12.354;2023-04-24T09:52:10;16.00;94.20
38910;DHT22;24676;51.360;12.354;2023-04-24T09:54:55;16.20;92.50
38910;DHT22;24676;51.360;12.354;2023-04-24T09:57:54;16.40;94.10
38910;DHT22;24676;51.360;12.354;2023-04-24T10:00:38;17.00;87.10
38910;DHT22;24676;51.360;12.354;2023-04-24T10:03:26;17.80;72.70
38910;DHT22;24676;51.360;12.354;2023-04-24T10:06:13;18.00;64.00
38910;DHT22;24676;51.360;12.354;2023-04-24T10:08:59;18.10;63.20
38910;DHT22;24676;51.360;12.354;2023-04-24T10:11:45;18.10;60.70
38910;DHT22;24676;51.360;12.354;2023-04-24T10:14:30;18.20;61.80
38910;DHT22;24676;51.360;12.354;2023-04-24T10:17:14;18.20;60.20
38910;DHT22;24676;51.360;12.354;2023-04-24T10:20:00;17.90;57.70
38910;DHT22;24676;51.360;12.354;2023-04-24T10:22:48;17.80;58.30
38910;DHT22;24676;51.360;12.354;2023-04-24T10:25:35;18.00;55.30
38910;DHT22;24676;51.360;12.354;2023-04-24T10:28:20;18.30;54.70
38910;DHT22;24676;51.360;12.354;2023-04-24T10:31:06;18.80;52.40
38910;DHT22;24676;51.360;12.354;2023-04-24T10:33:51;18.70;51.90
38910;DHT22;24676;51.360;12.354;2023-04-24T10:36:40;18.50;52.30
38910;DHT22;24676;51.360;12.354;2023-04-24T10:39:25;18.80;52.80
38910;DHT22;24676;51.360;12.354;2023-04-24T10:42:16;20.00;50.40
38910;DHT22;24676;51.360;12.354;2023-04-24T10:45:05;20.90;47.70
38910;DHT22;24676;51.360;12.354;2023-04-24T10:48:02;21.50;45.70
38910;DHT22;24676;51.360;12.354;2023-04-24T10:50:48;21.60;42.80
38910;DHT22;24676;51.360;12.354;2023-04-24T10:53:35;21.90;43.40
38910;DHT22;24676;51.360;12.354;2023-04-24T10:56:19;22.10;42.30
38910;DHT22;24676;51.360;12.354;2023-04-24T10:59:07;22.70;42.00
38910;DHT22;24676;51.360;12.354;2023-04-24T11:01:54;22.80;40.60
38910;DHT22;24676;51.360;12.354;2023-04-24T11:04:42;22.70;40.50
38910;DHT22;24676;51.360;12.354;2023-04-24T11:07:29;23.30;41.10
38910;DHT22;24676;51.360;12.354;2023-04-24T11:10:28;24.10;39.90
38910;DHT22;24676;51.360;12.354;2023-04-24T11:13:21;23.10;37.90
38910;DHT22;24676;51.360;12.354;2023-04-24T11:16:29;23.10;39.40
38910;DHT22;24676;51.360;12.354;2023-04-24T11:22:00;22.90;38.10
38910;DHT22;24676;51.360;12.354;2023-04-24T11:27:31;23.40;39.30
38910;DHT22;24676;51.360;12.354;2023-04-24T11:30:20;24.40;35.80
38910;DHT22;24676;51.360;12.354;2023-04-24T11:33:05;24.40;34.80
38910;DHT22;24676;51.360;12.354;2023-04-24T11:35:51;24.50;33.30
38910;DHT22;24676;51.360;12.354;2023-04-24T11:38:35;25.30;32.80
38910;DHT22;24676;51.360;12.354;2023-04-24T11:41:20;24.70;32.90
38910;DHT22;24676;51.360;12.354;2023-04-24T11:44:07;24.30;32.80
38910;DHT22;24676;51.360;12.354;2023-04-24T11:46:52;23.60;33.00
38910;DHT22;24676;51.360;12.354;2023-04-24T11:49:39;23.00;34.60
38910;DHT22;24676;51.360;12.354;2023-04-24T11:52:23;22.00;35.50
38910;DHT22;24676;51.360;12.354;2023-04-24T11:55:23;21.00;38.60
38910;DHT22;24676;51.360;12.354;2023-04-24T11:58:10;22.60;39.10
38910;DHT22;24676;51.360;12.354;2023-04-24T12:00:57;22.40;35.50
38910;DHT22;24676;51.360;12.354;2023-04-24T12:03:49;22.10;36.60
38910;DHT22;24676;51.360;12.354;2023-04-24T12:06:34;21.30;37.70
38910;DHT22;24676;51.360;12.354;2023-04-24T12:09:19;20.50;39.10
38910;DHT22;24676;51.360;12.354;2023-04-24T12:12:03;20.10;39.70
38910;DHT22;24676;51.360;12.354;2023-04-24T12:14:53;19.20;41.00
38910;DHT22;24676;51.360;12.354;2023-04-24T12:17:41;19.30;43.10
38910;DHT22;24676;51.360;12.354;2023-04-24T12:20:30;20.80;41.30
38910;DHT22;24676;51.360;12.354;2023-04-24T12:23:15;22.00;39.10
38910;DHT22;24676;51.360;12.354;2023-04-24T12:26:00;22.70;38.20
38910;DHT22;24676;51.360;12.354;2023-04-24T12:28:47;22.80;36.00
38910;DHT22;24676;51.360;12.354;2023-04-24T12:31:33;22.90;36.80
38910;DHT22;24676;51.360;12.354;2023-04-24T12:34:19;22.00;36.70
38910;DHT22;24676;51.360;12.354;2023-04-24T12:37:11;20.60;38.30
38910;DHT22;24676;51.360;12.354;2023-04-24T12:42:45;19.00;42.00
38910;DHT22;24676;51.360;12.354;2023-04-24T12:45:30;19.30;41.90
38910;DHT22;24676;51.360;12.354;2023-04-24T12:48:14;19.20;41.20
38910;DHT22;24676;51.360;12.354;2023-04-24T12:50:59;19.10;42.00
38910;DHT22;24676;51.360;12.354;2023-04-24T12:53:46;19.30;41.20
38910;DHT22;24676;51.360;12.354;2023-04-24T12:56:30;19.50;41.60
38910;DHT22;24676;51.360;12.354;2023-04-24T12:59:14;19.80;42.00
38910;DHT22;24676;51.360;12.354;2023-04-24T13:01:59;20.00;40.00
38910;DHT22;24676;51.360;12.354;2023-04-24T13:04:44;19.20;40.20
38910;DHT22;24676;51.360;12.354;2023-04-24T13:07:29;18.80;41.50
38910;DHT22;24676;51.360;12.354;2023-04-24T13:10:13;18.70;42.00
38910;DHT22;24676;51.360;12.354;2023-04-24T13:12:59;18.40;41.30
38910;DHT22;24676;51.360;12.354;2023-04-24T13:15:43;18.30;42.20
38910;DHT22;24676;51.360;12.354;2023-04-24T13:18:27;18.10;43.20
38910;DHT22;24676;51.360;12.354;2023-04-24T13:21:12;18.30;43.40
38910;DHT22;24676;51.360;12.354;2023-04-24T13:23:56;18.40;43.20
38910;DHT22;24676;51.360;12.354;2023-04-24T13:26:40;18.50;43.20
38910;DHT22;24676;51.360;12.354;2023-04-24T13:29:24;18.60;42.90
38910;DHT22;24676;51.360;12.354;2023-04-24T13:32:09;18.80;42.30
38910;DHT22;24676;51.360;12.354;2023-04-24T13:34:53;18.80;43.60
38910;DHT22;24676;51.360;12.354;2023-04-24T13:37:38;18.70;42.50
38910;DHT22;24676;51.360;12.354;2023-04-24T13:40:22;18.60;42.60
38910;DHT22;24676;51.360;12.354;2023-04-24T13:43:07;18.60;42.40
38910;DHT22;24676;51.360;12.354;2023-04-24T13:45:51;18.30;42.20
38910;DHT22;24676;51.360;12.354;2023-04-24T13:48:36;18.00;43.50
38910;DHT22;24676;51.360;12.354;2023-04-24T13:51:19;17.70;44.10
38910;DHT22;24676;51.360;12.354;2023-04-24T13:54:04;17.60;45.20
38910;DHT22;24676;51.360;12.354;2023-04-24T13:56:49;17.30;45.30
38910;DHT22;24676;51.360;12.354;2023-04-24T13:59:33;17.10;46.50
38910;DHT22;24676;51.360;12.354;2023-04-24T14:02:17;16.90;47.10
38910;DHT22;24676;51.360;12.354;2023-04-24T14:05:02;16.80;48.10
38910;DHT22;24676;51.360;12.354;2023-04-24T14:07:47;16.80;48.90
38910;DHT22;24676;51.360;12.354;2023-04-24T14:10:31;17.20;49.00
38910;DHT22;24676;51.360;12.354;2023-04-24T14:13:15;17.40;47.00
38910;DHT22;24676;51.360;12.354;2023-04-24T14:16:00;17.50;45.90
38910;DHT22;24676;51.360;12.354;2023-04-24T14:18:44;17.70;46.00
38910;DHT22;24676;51.360;12.354;2023-04-24T14:21:28;17.70;45.90
38910;DHT22;24676;51.360;12.354;2023-04-24T14:24:12;17.50;46.20
38910;DHT22;24676;51.360;12.354;2023-04-24T14:26:57;17.40;48.10
38910;DHT22;24676;51.360;12.354;2023-04-24T14:29:41;17.40;48.10
38910;DHT22;24676;51.360;12.354;2023-04-24T14:32:26;17.30;48.20
38910;DHT22;24676;51.360;12.354;2023-04-24T14:35:10;17.10;48.80
38910;DHT22;24676;51.360;12.354;2023-04-24T14:37:54;17.20;49.30
38910;DHT22;24676;51.360;12.354;2023-04-24T14:40:39;17.10;49.00
38910;DHT22;24676;51.360;12.354;2023-04-24T14:43:24;17.00;48.70
38910;DHT22;24676;51.360;12.354;2023-04-24T14:46:08;16.60;49.90
38910;DHT22;24676;51.360;12.354;2023-04-24T14:48:52;16.60;50.20
38910;DHT22;24676;51.360;12.354;2023-04-24T14:51:36;16.60;49.80
38910;DHT22;24676;51.360;12.354;2023-04-24T14:54:20;16.40;50.50
38910;DHT22;24676;51.360;12.354;2023-04-24T14:57:06;16.20;51.90
38910;DHT22;24676;51.360;12.354;2023-04-24T14:59:51;16.20;52.70
38910;DHT22;24676;51.360;12.354;2023-04-24T15:02:35;15.90;53.40
38910;DHT22;24676;51.360;12.354;2023-04-24T15:05:21;15.60;54.80
38910;DHT22;24676;51.360;12.354;2023-04-24T15:08:06;15.40;55.90
38910;DHT22;24676;51.360;12.354;2023-04-24T15:10:50;15.20;56.70
38910;DHT22;24676;51.360;12.354;2023-04-24T15:13:34;15.10;57.30
38910;DHT22;24676;51.360;12.354;2023-04-24T15:16:19;15.30;58.10
38910;DHT22;24676;51.360;12.354;2023-04-24T15:19:04;15.60;57.90
38910;DHT22;24676;51.360;12.354;2023-04-24T15:21:48;15.80;57.10
38910;DHT22;24676;51.360;12.354;2023-04-24T15:24:32;15.70;56.20
38910;DHT22;24676;51.360;12.354;2023-04-24T15:27:16;15.40;56.40
38910;DHT22;24676;51.360;12.354;2023-04-24T15:30:00;15.00;57.70
38910;DHT22;24676;51.360;12.354;2023-04-24T15:32:45;14.80;58.80
38910;DHT22;24676;51.360;12.354;2023-04-24T15:35:30;14.70;59.80
38910;DHT22;24676;51.360;12.354;2023-04-24T15:38:14;14.70;60.40
38910;DHT22;24676;51.360;12.354;2023-04-24T15:40:58;14.70;60.90
38910;DHT22;24676;51.360;12.354;2023-04-24T15:43:42;14.70;61.80
38910;DHT22;24676;51.360;12.354;2023-04-24T15:46:27;14.70;61.40
38910;DHT22;24676;51.360;12.354;2023-04-24T15:49:11;14.50;61.30
38910;DHT22;24676;51.360;12.354;2023-04-24T15:51:56;14.40;62.50
38910;DHT22;24676;51.360;12.354;2023-04-24T15:54:40;14.30;62.20
38910;DHT22;24676;51.360;12.354;2023-04-24T15:57:24;14.50;60.70
38910;DHT22;24676;51.360;12.354;2023-04-24T16:00:09;14.60;59.50
38910;DHT22;24676;51.360;12.354;2023-04-24T16:02:53;14.60;59.00
38910;DHT22;24676;51.360;12.354;2023-04-24T16:05:38;14.50;59.40
38910;DHT22;24676;51.360;12.354;2023-04-24T16:08:22;14.30;59.60
38910;DHT22;24676;51.360;12.354;2023-04-24T16:11:07;14.20;59.20
38910;DHT22;24676;51.360;12.354;2023-04-24T16:13:51;14.20;58.60
38910;DHT22;24676;51.360;12.354;2023-04-24T16:16:36;14.00;58.70
38910;DHT22;24676;51.360;12.354;2023-04-24T16:19:20;14.00;59.70
38910;DHT22;24676;51.360;12.354;2023-04-24T16:22:04;14.00;61.00
38910;DHT22;24676;51.360;12.354;2023-04-24T16:24:48;14.00;59.50
38910;DHT22;24676;51.360;12.354;2023-04-24T16:27:33;14.00;60.50
38910;DHT22;24676;51.360;12.354;2023-04-24T16:30:18;13.90;60.30
38910;DHT22;24676;51.360;12.354;2023-04-24T16:33:02;13.90;60.40
38910;DHT22;24676;51.360;12.354;2023-04-24T16:35:50;13.70;61.00
38910;DHT22;24676;51.360;12.354;2023-04-24T16:38:34;13.60;61.90
38910;DHT22;24676;51.360;12.354;2023-04-24T16:41:19;13.50;63.00
38910;DHT22;24676;51.360;12.354;2023-04-24T16:44:03;13.40;63.50
38910;DHT22;24676;51.360;12.354;2023-04-24T16:46:47;13.40;64.20
38910;DHT22;24676;51.360;12.354;2023-04-24T16:49:31;13.20;65.00
38910;DHT22;24676;51.360;12.354;2023-04-24T16:52:15;13.10;64.60
38910;DHT22;24676;51.360;12.354;2023-04-24T16:55:00;13.00;66.30
38910;DHT22;24676;51.360;12.354;2023-04-24T16:57:44;13.00;67.40
38910;DHT22;24676;51.360;12.354;2023-04-24T17:00:28;12.90;67.80
38910;DHT22;24676;51.360;12.354;2023-04-24T17:03:12;12.90;69.60
38910;DHT22;24676;51.360;12.354;2023-04-24T17:05:56;12.80;70.60
38910;DHT22;24676;51.360;12.354;2023-04-24T17:08:40;12.80;71.20
38910;DHT22;24676;51.360;12.354;2023-04-24T17:11:25;12.70;73.40
38910;DHT22;24676;51.360;12.354;2023-04-24T17:14:10;12.70;75.20